Time;durP1;ratioP1;P1;durP2;ratioP2;P2;SDS_P1;SDS_P2;PMS_P1;PMS_P2;Temp;Humidity;BMP_temperature;BMP_pressure;BME280_temperature;BME280_humidity;BME280_pressure;Samples;Min_cycle;Max_cycle;Signal;HPM_P1;HPM_P2
2022/10/17 00:00:52;;;;;;;;;;;;;;;13.28;66.13;100847.34;4366054;32;32616;-88
2022/10/17 00:03:22;;;;;;;;;;;;;;;13.21;66.27;100854.28;4368679;32;34601;-86
2022/10/17 00:05:56;;;;;;;;;;;;;;;13.23;66.37;100847.31;4371590;32;33675;-91
2022/10/17 00:08:26;;;;;;;;;;;;;;;13.29;66.07;100853.41;4370434;32;33046;-86
2022/10/17 00:10:57;;;;;;;;;;;;;;;13.32;65.85;100854.28;4367758;32;32832;-86
2022/10/17 00:13:26;;;;;;;;;;;;;;;13.37;65.48;100849.03;4370961;32;34148;-88
2022/10/17 00:15:55;;;;;;;;;;;;;;;13.20;65.88;100849.94;4367686;32;32684;-85
2022/10/17 00:18:28;;;;;;;;;;;;;;;13.24;65.41;100849.06;4373181;32;32347;-88
2022/10/17 00:20:57;;;;;;;;;;;;;;;13.17;65.83;100855.19;4367202;32;33807;-86
2022/10/17 00:23:29;;;;;;;;;;;;;;;13.09;65.95;100854.34;4369801;32;34199;-85
2022/10/17 00:25:58;;;;;;;;;;;;;;;13.18;65.88;100856.03;4365003;32;33842;-88
2022/10/17 00:28:28;;;;;;;;;;;;;;;13.13;65.97;100858.69;4372171;32;34161;-87
2022/10/17 00:31:01;;;;;;;;;;;;;;;13.21;65.69;100843.00;4372532;32;34771;-86
2022/10/17 00:33:32;;;;;;;;;;;;;;;13.21;65.43;100849.06;4365818;32;33817;-87
2022/10/17 00:36:05;;;;;;;;;;;;;;;13.21;65.21;100858.62;4365676;32;33161;-85
2022/10/17 00:38:36;;;;;;;;;;;;;;;13.30;65.02;100853.41;4364584;32;32018;-86
2022/10/17 00:41:06;;;;;;;;;;;;;;;13.13;65.49;100863.87;4371619;32;33750;-87
2022/10/17 00:43:52;;;;;;;;;;;;;;;13.05;65.99;100867.37;4366408;32;33907;-87
2022/10/17 00:46:30;;;;;;;;;;;;;;;13.06;65.83;100862.19;4363138;32;32750;-87
2022/10/17 00:49:01;;;;;;;;;;;;;;;13.01;65.78;100861.34;4364633;32;31822;-87
2022/10/17 00:51:32;;;;;;;;;;;;;;;12.96;65.96;100853.53;4367853;32;34724;-88
2022/10/17 00:54:01;;;;;;;;;;;;;;;12.89;66.05;100853.59;4370683;32;34807;-90
2022/10/17 00:56:30;;;;;;;;;;;;;;;12.93;66.01;100860.53;4367990;32;35127;-87
2022/10/17 00:58:59;;;;;;;;;;;;;;;12.87;66.19;100853.56;4365658;32;33594;-87
2022/10/17 01:01:28;;;;;;;;;;;;;;;12.85;66.26;100859.66;4365758;32;34681;-89
2022/10/17 01:04:03;;;;;;;;;;;;;;;12.88;66.07;100851.84;4357959;32;33124;-87
2022/10/17 01:06:36;;;;;;;;;;;;;;;12.91;65.83;100851.84;4372140;32;34478;-88
2022/10/17 01:09:04;;;;;;;;;;;;;;;12.91;65.70;100850.09;4369449;32;33733;-87
2022/10/17 01:11:36;;;;;;;;;;;;;;;12.81;65.94;100846.66;4369591;32;33740;-87
2022/10/17 01:14:06;;;;;;;;;;;;;;;12.76;66.06;100845.81;4369966;32;34709;-87
2022/10/17 01:16:39;;;;;;;;;;;;;;;12.73;66.21;100845.84;4370826;32;33860;-88
2022/10/17 01:19:19;;;;;;;;;;;;;;;12.79;66.12;100844.94;4375550;32;33079;-87
2022/10/17 01:21:50;;;;;;;;;;;;;;;12.73;66.43;100845.84;4363604;32;33468;-88
2022/10/17 01:24:28;;;;;;;;;;;;;;;12.72;66.35;100856.25;4376477;32;35462;-90
2022/10/17 01:27:07;;;;;;;;;;;;;;;12.74;66.44;100855.38;4376433;32;33301;-89
2022/10/17 01:29:41;;;;;;;;;;;;;;;12.69;66.53;100854.53;4372404;32;33671;-86
2022/10/17 01:32:15;;;;;;;;;;;;;;;12.70;66.24;100842.38;4374825;32;33779;-88
2022/10/17 01:34:45;;;;;;;;;;;;;;;12.54;66.66;100851.94;4370241;32;34614;-87
2022/10/17 01:37:16;;;;;;;;;;;;;;;12.59;66.68;100848.47;4371470;32;33499;-88
2022/10/17 01:39:52;;;;;;;;;;;;;;;12.58;66.33;100848.47;4371160;32;32398;-87
2022/10/17 01:42:22;;;;;;;;;;;;;;;12.58;66.44;100838.91;4375822;32;34663;-90
2022/10/17 01:44:54;;;;;;;;;;;;;;;12.75;65.79;100846.66;4372039;32;33156;-87
2022/10/17 01:47:24;;;;;;;;;;;;;;;12.71;65.95;100846.69;4363582;32;34411;-87
2022/10/17 01:50:01;;;;;;;;;;;;;;;12.67;66.04;100850.19;4370607;32;32727;-86
2022/10/17 01:52:35;;;;;;;;;;;;;;;12.59;66.13;100852.81;4370853;32;34946;-88
2022/10/17 01:55:05;;;;;;;;;;;;;;;12.53;66.33;100853.69;4361524;32;33771;-86
2022/10/17 01:57:35;;;;;;;;;;;;;;;12.59;66.21;100855.44;4356722;32;34488;-88
2022/10/17 02:00:05;;;;;;;;;;;;;;;12.56;66.12;100852.81;4356807;32;33202;-92
2022/10/17 02:02:41;;;;;;;;;;;;;;;12.52;66.31;100851.09;4358779;32;33722;-89
2022/10/17 02:05:10;;;;;;;;;;;;;;;12.55;66.00;100853.69;4371345;32;34059;-90
2022/10/17 02:07:46;;;;;;;;;;;;;;;12.50;66.17;100855.44;4375702;32;33790;-87
2022/10/17 02:10:23;;;;;;;;;;;;;;;12.38;66.48;100858.94;4371390;32;33265;-87
2022/10/17 02:12:53;;;;;;;;;;;;;;;12.44;66.22;100855.44;4373617;32;33433;-86
2022/10/17 02:15:35;;;;;;;;;;;;;;;12.39;66.34;100860.66;4373155;32;34501;-88
2022/10/17 02:18:10;;;;;;;;;;;;;;;12.26;66.69;100858.97;4371673;32;33925;-88
2022/10/17 02:20:47;;;;;;;;;;;;;;;12.41;65.84;100858.06;4376538;32;33334;-88
2022/10/17 02:23:17;;;;;;;;;;;;;;;12.25;66.66;100857.22;4365250;32;34145;-87
2022/10/17 02:25:54;;;;;;;;;;;;;;;12.33;66.19;100858.94;4369221;32;34950;-89
2022/10/17 02:28:23;;;;;;;;;;;;;;;12.18;66.58;100858.97;4369038;32;33758;-87
2022/10/17 02:30:58;;;;;;;;;;;;;;;12.12;66.44;100853.75;4370919;32;32556;-89
2022/10/17 02:33:37;;;;;;;;;;;;;;;12.15;66.46;100856.34;4371999;32;33480;-87
2022/10/17 02:36:07;;;;;;;;;;;;;;;12.23;66.32;100858.97;4369478;32;34500;-88
2022/10/17 02:38:38;;;;;;;;;;;;;;;12.16;66.28;100848.56;4371538;32;34500;-86
2022/10/17 02:41:06;;;;;;;;;;;;;;;12.12;66.65;100858.97;4369646;32;32637;-87
2022/10/17 02:43:39;;;;;;;;;;;;;;;12.23;66.47;100862.44;4371217;32;33913;-90
2022/10/17 02:46:08;;;;;;;;;;;;;;;12.23;66.50;100864.19;4375773;32;33664;-87
2022/10/17 02:48:41;;;;;;;;;;;;;;;12.20;66.55;100858.94;4369386;32;33601;-86
2022/10/17 02:51:12;;;;;;;;;;;;;;;12.16;66.62;100869.38;4369370;32;32983;-87
2022/10/17 02:53:43;;;;;;;;;;;;;;;12.19;66.39;100871.09;4375790;32;34303;-86
2022/10/17 02:56:14;;;;;;;;;;;;;;;12.20;66.25;100866.75;4374716;32;34595;-85
2022/10/17 02:58:43;;;;;;;;;;;;;;;12.29;65.96;100875.41;4368308;32;34481;-88
2022/10/17 03:01:13;;;;;;;;;;;;;;;12.21;66.13;100881.50;4370287;32;32964;-86
2022/10/17 03:03:46;;;;;;;;;;;;;;;12.21;65.76;100876.31;4373488;32;34755;-86
2022/10/17 03:06:23;;;;;;;;;;;;;;;12.06;66.17;100877.19;4362370;32;33529;-88
2022/10/17 03:08:51;;;;;;;;;;;;;;;12.06;66.33;100882.41;4375337;32;34371;-88
2022/10/17 03:11:21;;;;;;;;;;;;;;;11.99;66.58;100884.13;4369728;32;32812;-88
2022/10/17 03:13:50;;;;;;;;;;;;;;;12.06;66.25;100880.66;4371615;32;33981;-89
2022/10/17 03:16:19;;;;;;;;;;;;;;;11.97;66.55;100879.78;4368041;32;33449;-87
2022/10/17 03:18:57;;;;;;;;;;;;;;;12.00;66.48;100874.56;4370810;32;33827;-88
2022/10/17 03:21:25;;;;;;;;;;;;;;;12.00;66.54;100884.97;4372227;32;31774;-86
2022/10/17 03:23:55;;;;;;;;;;;;;;;11.92;66.63;100892.78;4369590;32;34758;-86
2022/10/17 03:26:28;;;;;;;;;;;;;;;11.94;66.73;100889.31;4370274;32;33507;-87
2022/10/17 03:28:58;;;;;;;;;;;;;;;12.05;66.48;100884.09;4369095;32;33320;-89
2022/10/17 03:31:30;;;;;;;;;;;;;;;12.11;66.25;100893.66;4374418;32;33990;-87
2022/10/17 03:34:01;;;;;;;;;;;;;;;12.09;66.19;100901.44;4368867;32;34207;-87
2022/10/17 03:36:48;;;;;;;;;;;;;;;12.05;66.51;100904.91;4364691;32;33539;-90
2022/10/17 03:39:26;;;;;;;;;;;;;;;12.08;66.52;100904.03;4369379;32;33337;-87
2022/10/17 03:41:55;;;;;;;;;;;;;;;12.03;66.69;100911.84;4371806;32;33740;-87
2022/10/17 03:44:24;;;;;;;;;;;;;;;12.17;66.37;100904.03;4373283;32;33918;-86
2022/10/17 03:46:53;;;;;;;;;;;;;;;12.11;66.67;100906.66;4370614;32;33775;-89
2022/10/17 03:49:27;;;;;;;;;;;;;;;12.10;66.81;100917.91;4372338;32;34015;-88
2022/10/17 03:51:56;;;;;;;;;;;;;;;12.10;67.04;100926.59;4373218;32;33287;-87
2022/10/17 03:54:25;;;;;;;;;;;;;;;12.12;66.59;100921.41;4372970;32;33393;-86
2022/10/17 03:56:54;;;;;;;;;;;;;;;11.99;67.49;100922.28;4377291;32;33705;-91
2022/10/17 03:59:26;;;;;;;;;;;;;;;12.15;66.93;100924.87;4371950;32;34547;-85
2022/10/17 04:02:03;;;;;;;;;;;;;;;12.11;66.83;100919.69;4372737;32;33816;-87
2022/10/17 04:04:33;;;;;;;;;;;;;;;12.12;66.48;100926.59;4372994;32;34035;-87
2022/10/17 04:07:04;;;;;;;;;;;;;;;11.99;66.77;100923.12;4365693;32;32479;-87
2022/10/17 04:09:36;;;;;;;;;;;;;;;12.00;66.92;100919.66;4361374;32;34379;-89
2022/10/17 04:12:05;;;;;;;;;;;;;;;12.06;66.47;100921.41;4358089;32;33456;-86
2022/10/17 04:14:34;;;;;;;;;;;;;;;12.05;66.58;100928.31;4357516;32;33762;-87
2022/10/17 04:17:06;;;;;;;;;;;;;;;12.00;66.84;100926.59;4357715;32;34435;-87
2022/10/17 04:19:36;;;;;;;;;;;;;;;11.97;66.82;100924.84;4374079;32;34030;-88
2022/10/17 04:22:07;;;;;;;;;;;;;;;12.04;66.80;100929.19;4364684;32;33317;-85
2022/10/17 04:24:37;;;;;;;;;;;;;;;11.92;66.98;100927.44;4374942;32;33702;-90
2022/10/17 04:27:06;;;;;;;;;;;;;;;11.98;66.97;100933.53;4370690;32;32885;-87
2022/10/17 04:29:36;;;;;;;;;;;;;;;12.07;66.71;100943.94;4375694;32;34529;-90
2022/10/17 04:32:11;;;;;;;;;;;;;;;12.02;66.67;100945.66;4376508;32;34491;-86
2022/10/17 04:34:41;;;;;;;;;;;;;;;12.01;66.76;100949.13;4374408;32;32496;-87
2022/10/17 04:37:12;;;;;;;;;;;;;;;12.01;66.70;100951.72;4369452;32;34164;-87
2022/10/17 04:39:40;;;;;;;;;;;;;;;12.00;66.57;100945.66;4373573;32;34039;-88
2022/10/17 04:42:10;;;;;;;;;;;;;;;11.99;66.61;100946.53;4375630;32;32963;-87
2022/10/17 04:44:40;;;;;;;;;;;;;;;11.92;66.66;100948.25;4370070;32;33551;-86
2022/10/17 04:47:10;;;;;;;;;;;;;;;12.02;66.49;100948.28;4371715;32;35034;-87
2022/10/17 04:49:43;;;;;;;;;;;;;;;12.04;66.58;100951.75;4371195;32;33724;-91
2022/10/17 04:52:16;;;;;;;;;;;;;;;11.94;67.00;100946.53;4371593;32;33201;-90
2022/10/17 04:54:44;;;;;;;;;;;;;;;12.03;67.01;100950.00;4370684;32;34011;-87
2022/10/17 04:57:16;;;;;;;;;;;;;;;11.93;67.48;100951.72;4366604;32;33554;-87
2022/10/17 04:59:46;;;;;;;;;;;;;;;11.93;67.49;100954.31;4370419;32;34842;-87
2022/10/17 05:02:19;;;;;;;;;;;;;;;11.98;67.34;100956.94;4365701;32;33610;-89
2022/10/17 05:04:50;;;;;;;;;;;;;;;11.97;67.43;100971.66;4375727;32;34264;-87
2022/10/17 05:07:20;;;;;;;;;;;;;;;12.09;66.78;100966.47;4369372;32;33304;-87
2022/10/17 05:09:51;;;;;;;;;;;;;;;12.04;66.83;100965.63;4370921;32;33251;-86
2022/10/17 05:12:20;;;;;;;;;;;;;;;12.08;66.71;100966.47;4366054;32;33001;-86
2022/10/17 05:14:48;;;;;;;;;;;;;;;12.04;66.80;100976.03;4372695;32;34564;-86
2022/10/17 05:17:17;;;;;;;;;;;;;;;12.12;66.45;100971.69;4376932;32;35030;-90
2022/10/17 05:19:51;;;;;;;;;;;;;;;12.07;67.04;100976.00;4359457;32;33947;-90
2022/10/17 05:22:20;;;;;;;;;;;;;;;12.01;67.44;100969.94;4357155;32;33440;-88
2022/10/17 05:24:52;;;;;;;;;;;;;;;11.93;67.76;100982.94;4357954;32;33263;-89
2022/10/17 05:27:27;;;;;;;;;;;;;;;12.00;67.75;100987.28;4370127;32;34411;-88
2022/10/17 05:29:55;;;;;;;;;;;;;;;11.97;67.70;100989.00;4363471;32;33144;-89
2022/10/17 05:32:25;;;;;;;;;;;;;;;11.99;67.98;100995.09;4369392;32;36462;-89
2022/10/17 05:34:57;;;;;;;;;;;;;;;11.93;68.04;100995.94;4365529;32;34510;-91
2022/10/17 05:37:26;;;;;;;;;;;;;;;12.08;67.52;100997.69;4367005;32;34013;-89
2022/10/17 05:39:55;;;;;;;;;;;;;;;12.09;67.52;101004.62;4368840;32;34698;-88
2022/10/17 05:42:26;;;;;;;;;;;;;;;12.14;67.51;101002.91;4371058;32;33229;-88
2022/10/17 05:44:56;;;;;;;;;;;;;;;12.10;67.74;101009.81;4369537;32;33683;-87
2022/10/17 05:47:31;;;;;;;;;;;;;;;12.27;67.34;101015.06;4362916;32;33909;-91
2022/10/17 05:50:02;;;;;;;;;;;;;;;12.22;67.61;101016.78;4363172;32;33641;-89
2022/10/17 05:52:35;;;;;;;;;;;;;;;12.12;68.42;101015.03;4368313;32;33408;-87
2022/10/17 05:55:05;;;;;;;;;;;;;;;12.28;68.09;101019.41;4367846;32;34500;-87
2022/10/17 05:57:35;;;;;;;;;;;;;;;12.26;68.45;101023.72;4362931;32;34155;-88
2022/10/17 06:00:06;;;;;;;;;;;;;;;12.51;67.68;101023.75;4357624;32;33619;-88
2022/10/17 06:02:41;;;;;;;;;;;;;;;12.30;68.41;101035.91;4368774;32;32973;-88
2022/10/17 06:05:14;;;;;;;;;;;;;;;12.26;69.23;101041.09;4367549;32;33814;-87
2022/10/17 06:07:44;;;;;;;;;;;;;;;12.47;68.51;101041.13;4372740;32;34900;-88
2022/10/17 06:10:15;;;;;;;;;;;;;;;12.62;68.05;101042.84;4371158;32;33591;-88
2022/10/17 06:12:47;;;;;;;;;;;;;;;12.53;68.52;101048.91;4371723;32;32090;-87
2022/10/17 06:15:24;;;;;;;;;;;;;;;12.69;68.38;101049.78;4374114;32;34486;-91
2022/10/17 06:17:54;;;;;;;;;;;;;;;12.76;68.27;101053.28;4366631;32;34364;-87
2022/10/17 06:20:30;;;;;;;;;;;;;;;12.66;68.93;101057.63;4364026;32;33763;-87
2022/10/17 06:25:33;;;;;;;;;;;;;;;12.56;69.92;101066.25;4368091;32;33704;-87
2022/10/17 06:28:02;;;;;;;;;;;;;;;12.81;68.90;101064.56;4370904;32;34250;-88
2022/10/17 06:30:34;;;;;;;;;;;;;;;12.91;68.91;101062.81;4360588;32;34488;-90
2022/10/17 06:33:04;;;;;;;;;;;;;;;13.12;68.12;101059.28;4356197;32;33052;-92
2022/10/17 06:35:34;;;;;;;;;;;;;;;13.01;68.63;101070.59;4360435;32;33830;-89
2022/10/17 06:38:04;;;;;;;;;;;;;;;13.03;69.18;101074.06;4369356;32;34919;-88
2022/10/17 06:40:36;;;;;;;;;;;;;;;13.19;68.37;101071.44;4371582;32;33955;-91
2022/10/17 06:43:10;;;;;;;;;;;;;;;13.32;69.42;101080.16;4372053;32;32993;-89
2022/10/17 06:45:42;;;;;;;;;;;;;;;13.35;69.88;101080.13;4373277;32;33995;-91
2022/10/17 06:48:19;;;;;;;;;;;;;;;13.60;67.75;101089.66;4373220;32;36031;-91
2022/10/17 06:50:53;;;;;;;;;;;;;;;13.50;67.91;101093.12;4376493;32;34146;-87
2022/10/17 06:53:23;;;;;;;;;;;;;;;13.75;66.39;101090.44;4366961;32;34045;-87
2022/10/17 06:56:00;;;;;;;;;;;;;;;13.76;66.18;101098.25;4365152;32;34305;-87
2022/10/17 06:58:31;;;;;;;;;;;;;;;13.77;65.94;101101.72;4362141;32;33003;-88
2022/10/17 07:01:05;;;;;;;;;;;;;;;13.76;65.96;101103.47;4362993;32;34380;-91
2022/10/17 07:03:47;;;;;;;;;;;;;;;13.90;65.50;101094.75;4363606;32;32736;-87
2022/10/17 07:06:17;;;;;;;;;;;;;;;13.91;65.58;101096.47;4363586;32;34161;-88
2022/10/17 07:08:49;;;;;;;;;;;;;;;13.98;65.67;101106.00;4363344;32;33531;-90
2022/10/17 07:11:20;;;;;;;;;;;;;;;13.97;66.10;101104.28;4363914;32;33754;-86
2022/10/17 07:13:49;;;;;;;;;;;;;;;14.07;65.58;101105.97;4371134;32;33287;-88
2022/10/17 07:16:22;;;;;;;;;;;;;;;14.14;65.46;101112.03;4375826;32;33635;-87
2022/10/17 07:18:53;;;;;;;;;;;;;;;14.34;64.62;101109.31;4364325;32;34906;-88
2022/10/17 07:21:27;;;;;;;;;;;;;;;14.36;64.50;101107.56;4365251;32;33971;-88
2022/10/17 07:23:55;;;;;;;;;;;;;;;14.39;64.85;101118.81;4366317;32;32742;-88
2022/10/17 07:26:25;;;;;;;;;;;;;;;14.70;63.64;101116.06;4370129;32;34119;-89
2022/10/17 07:28:54;;;;;;;;;;;;;;;14.54;64.21;101111.81;4370747;32;33772;-90
2022/10/17 07:31:30;;;;;;;;;;;;;;;14.39;65.09;101118.81;4366596;32;33701;-87
2022/10/17 07:33:59;;;;;;;;;;;;;;;14.61;63.68;101122.19;4364635;32;32579;-88
2022/10/17 07:36:29;;;;;;;;;;;;;;;15.00;61.32;101114.94;4369991;32;33560;-88
2022/10/17 07:38:58;;;;;;;;;;;;;;;14.86;61.91;101116.78;4370008;32;33549;-92
2022/10/17 07:41:30;;;;;;;;;;;;;;;14.79;62.59;101129.06;4368338;32;33596;-91
2022/10/17 07:43:59;;;;;;;;;;;;;;;15.05;61.18;101122.72;4369718;32;33046;-87
2022/10/17 07:46:33;;;;;;;;;;;;;;;14.88;61.69;101117.66;4370040;32;34487;-88
2022/10/17 07:49:01;;;;;;;;;;;;;;;14.86;62.14;101117.69;4367754;32;34281;-93
2022/10/17 07:51:34;;;;;;;;;;;;;;;15.04;61.36;101129.72;4366274;32;33609;-87
2022/10/17 07:54:04;;;;;;;;;;;;;;;14.97;60.70;101124.56;4361617;32;32642;-90
2022/10/17 07:56:36;;;;;;;;;;;;;;;15.20;60.26;101130.47;4364865;32;33762;-91
2022/10/17 07:59:08;;;;;;;;;;;;;;;15.51;59.59;101120.56;4361594;32;34342;-92
2022/10/17 08:01:47;;;;;;;;;;;;;;;15.51;59.46;101122.28;4368401;32;33698;-88
2022/10/17 08:04:22;;;;;;;;;;;;;;;15.40;60.15;101127.66;4367477;32;33769;-88
2022/10/17 08:06:52;;;;;;;;;;;;;;;15.45;59.72;101132.81;4363739;32;33598;-90
2022/10/17 08:09:46;;;;;;;;;;;;;;;15.71;58.24;101128.22;4360943;32;35165;-95
2022/10/17 08:12:17;;;;;;;;;;;;;;;15.47;58.52;101138.91;4366222;32;33366;-92
2022/10/17 08:14:49;;;;;;;;;;;;;;;15.53;58.33;101137.06;4361017;32;33467;-88
2022/10/17 08:17:20;;;;;;;;;;;;;;;15.79;58.22;101134.22;4367280;32;33797;-92
2022/10/17 08:20:09;;;;;;;;;;;;;;;15.68;58.27;101135.19;4361257;32;36216;-89
2022/10/17 08:22:39;;;;;;;;;;;;;;;15.98;57.03;101142.72;4361595;32;34428;-88
2022/10/17 08:25:12;;;;;;;;;;;;;;;16.08;56.85;101143.47;4363357;32;31777;-89
2022/10/17 08:27:41;;;;;;;;;;;;;;;16.19;55.96;101140.72;4370252;32;37559;-89
2022/10/17 08:30:12;;;;;;;;;;;;;;;16.26;55.53;101149.34;4375331;32;34807;-88
2022/10/17 08:32:40;;;;;;;;;;;;;;;16.34;55.63;101144.88;4366902;32;33923;-92
2022/10/17 08:35:13;;;;;;;;;;;;;;;16.39;55.28;101138.69;4365529;32;32728;-88
2022/10/17 08:37:43;;;;;;;;;;;;;;;16.34;55.65;101144.88;4363605;32;34851;-88
2022/10/17 08:40:15;;;;;;;;;;;;;;;16.34;55.99;101144.88;4377296;32;34753;-88
2022/10/17 08:42:52;;;;;;;;;;;;;;;16.48;55.68;101148.19;4367773;32;33465;-88
2022/10/17 08:45:30;;;;;;;;;;;;;;;16.69;54.62;101143.50;4367556;32;33446;-89
2022/10/17 08:48:02;;;;;;;;;;;;;;;16.52;54.86;101142.00;4363875;32;34034;-88
2022/10/17 08:50:32;;;;;;;;;;;;;;;16.71;54.04;101139.97;4367189;32;33693;-93
2022/10/17 08:53:11;;;;;;;;;;;;;;;16.61;54.74;101144.47;4376693;32;33729;-88
2022/10/17 08:55:42;;;;;;;;;;;;;;;16.74;54.43;101139.91;4371499;32;32514;-89
2022/10/17 08:58:13;;;;;;;;;;;;;;;16.67;54.34;101145.28;4369481;32;34738;-88
2022/10/17 09:00:46;;;;;;;;;;;;;;;16.82;53.70;101147.72;4371025;32;34090;-90
2022/10/17 09:03:26;;;;;;;;;;;;;;;16.86;53.45;101144.12;4363410;32;33867;-90
2022/10/17 09:05:56;;;;;;;;;;;;;;;16.95;53.23;101149.25;4376045;32;32743;-89
2022/10/17 09:08:32;;;;;;;;;;;;;;;16.99;53.12;101147.44;4367246;32;33225;-89
2022/10/17 09:11:03;;;;;;;;;;;;;;;17.18;52.64;101135.75;4369242;32;34270;-88
2022/10/17 09:13:43;;;;;;;;;;;;;;;17.21;52.68;101146.19;4367191;32;34135;-89
2022/10/17 09:16:24;;;;;;;;;;;;;;;17.09;52.39;101149.03;4363338;32;33391;-90
2022/10/17 09:18:56;;;;;;;;;;;;;;;17.48;52.06;101143.97;4361542;32;34173;-93
2022/10/17 09:21:26;;;;;;;;;;;;;;;17.42;51.76;101144.06;4366818;32;33832;-92
2022/10/17 09:24:00;;;;;;;;;;;;;;;17.37;51.34;101136.31;4372390;32;35583;-88
2022/10/17 09:26:46;;;;;;;;;;;;;;;17.25;52.24;101141.72;4374505;32;32008;-92
2022/10/17 09:29:21;;;;;;;;;;;;;;;17.67;50.13;101139.22;4369533;32;33765;-93
2022/10/17 09:32:01;;;;;;;;;;;;;;;17.54;51.23;101143.84;4375518;32;36111;-89
2022/10/17 09:34:30;;;;;;;;;;;;;;;17.68;50.82;101143.56;4370639;32;33842;-89
2022/10/17 09:37:02;;;;;;;;;;;;;;;17.82;50.56;101144.19;4362807;32;32197;-88
2022/10/17 09:39:33;;;;;;;;;;;;;;;17.67;50.82;101142.72;4360522;32;34672;-94
2022/10/17 09:42:05;;;;;;;;;;;;;;;17.79;51.19;101146.88;4368738;32;35170;-90
2022/10/17 09:44:34;;;;;;;;;;;;;;;17.68;51.24;101143.56;4372413;32;36169;-90
2022/10/17 09:47:25;;;;;;;;;;;;;;;18.13;49.34;101149.69;4372063;32;33485;-89
2022/10/17 09:49:57;;;;;;;;;;;;;;;18.13;49.02;101146.22;4368353;32;35881;-94
2022/10/17 09:52:32;;;;;;;;;;;;;;;18.31;47.66;101148.44;4368039;32;34301;-91
2022/10/17 09:55:09;;;;;;;;;;;;;;;18.19;48.38;101148.69;4356842;32;35222;-90
2022/10/17 09:57:52;;;;;;;;;;;;;;;18.42;48.73;101149.97;4372289;32;32795;-94
2022/10/17 10:00:23;;;;;;;;;;;;;;;18.40;48.39;101143.88;4368027;32;33509;-92
2022/10/17 10:03:08;;;;;;;;;;;;;;;18.49;47.79;101141.91;4366841;32;34886;-89
2022/10/17 10:05:38;;;;;;;;;;;;;;;18.67;46.41;101145.87;4382667;32;34820;-89
2022/10/17 10:08:21;;;;;;;;;;;;;;;18.55;47.25;101141.75;4363551;32;33788;-93
2022/10/17 10:11:03;;;;;;;;;;;;;;;18.77;45.85;101146.53;4369007;32;33456;-94
2022/10/17 10:13:33;;;;;;;;;;;;;;;19.01;45.88;101144.22;4369841;32;34784;-92
2022/10/17 10:16:13;;;;;;;;;;;;;;;18.85;46.87;101141.97;4369532;32;34870;-90
2022/10/17 10:18:47;;;;;;;;;;;;;;;18.86;46.71;101145.47;4362677;32;31470;-93
2022/10/17 10:21:19;;;;;;;;;;;;;;;18.98;47.00;101142.53;4368511;32;34418;-88
2022/10/17 10:24:04;;;;;;;;;;;;;;;19.06;46.27;101142.34;4369260;32;35466;-87
2022/10/17 10:26:42;;;;;;;;;;;;;;;19.17;45.40;101146.44;4355448;32;34014;-91
2022/10/17 10:29:21;;;;;;;;;;;;;;;19.09;46.89;101140.50;4361443;32;33331;-90
2022/10/17 10:31:59;;;;;;;;;;;;;;;19.15;46.64;101140.34;4370076;32;35101;-91
2022/10/17 10:34:38;;;;;;;;;;;;;;;19.13;46.01;101139.50;4367168;32;33879;-94
2022/10/17 10:37:22;;;;;;;;;;;;;;;19.33;45.45;101136.38;4362540;32;34446;-89
2022/10/17 10:39:52;;;;;;;;;;;;;;;19.52;46.27;101126.22;4365444;32;32200;-95
2022/10/17 10:42:23;;;;;;;;;;;;;;;19.66;45.31;101127.59;4374322;32;33014;-95
2022/10/17 10:44:52;;;;;;;;;;;;;;;19.75;46.03;101125.59;4374692;32;35150;-90
2022/10/17 10:47:23;;;;;;;;;;;;;;;19.73;45.71;101124.78;4370167;32;33792;-89
2022/10/17 10:49:53;;;;;;;;;;;;;;;19.78;44.19;101132.56;4356699;32;32962;-95
2022/10/17 10:52:29;;;;;;;;;;;;;;;19.65;44.42;101128.53;4366493;32;33644;-92
2022/10/17 10:55:07;;;;;;;;;;;;;;;19.78;44.52;101125.50;4370351;32;34201;-88
2022/10/17 10:57:37;;;;;;;;;;;;;;;19.88;45.45;101128.75;4370239;32;33385;-89
2022/10/17 11:00:11;;;;;;;;;;;;;;;19.78;44.82;101122.88;4360418;32;33333;-89
2022/10/17 11:02:41;;;;;;;;;;;;;;;19.84;44.03;101119.22;4363976;32;32508;-95
2022/10/17 11:05:21;;;;;;;;;;;;;;;19.98;44.48;101118.81;4360338;32;34939;-91
2022/10/17 11:07:52;;;;;;;;;;;;;;;19.96;45.31;101112.75;4375253;32;33630;-90
2022/10/17 11:10:22;;;;;;;;;;;;;;;19.99;45.58;101116.13;4364060;32;31720;-92
2022/10/17 11:12:53;;;;;;;;;;;;;;;20.05;44.51;101109.81;4364331;32;36100;-90
2022/10/17 11:15:24;;;;;;;;;;;;;;;20.07;44.92;101115.91;4370881;32;35129;-89
2022/10/17 11:17:56;;;;;;;;;;;;;;;20.22;44.83;101110.19;4372218;32;34313;-91
2022/10/17 11:20:29;;;;;;;;;;;;;;;20.12;43.44;101111.34;4366220;32;31922;-90
2022/10/17 11:23:18;;;;;;;;;;;;;;;20.42;43.33;101114.84;4379211;32;35072;-89
2022/10/17 11:25:48;;;;;;;;;;;;;;;20.45;44.09;101106.81;4367300;32;33267;-91
2022/10/17 11:28:20;;;;;;;;;;;;;;;20.42;44.01;101106.94;4363133;32;34811;-90
2022/10/17 11:30:54;;;;;;;;;;;;;;;20.59;42.92;101105.56;4369012;32;33372;-88
2022/10/17 11:33:30;;;;;;;;;;;;;;;20.50;43.55;101106.69;4369296;32;35171;-89
2022/10/17 11:36:03;;;;;;;;;;;;;;;20.60;42.49;101110.78;4368465;32;36755;-89
2022/10/17 11:38:36;;;;;;;;;;;;;;;20.59;42.97;101108.22;4366797;32;33804;-88
2022/10/17 11:41:05;;;;;;;;;;;;;;;20.78;43.66;101096.16;4369183;32;34081;-89
2022/10/17 11:43:36;;;;;;;;;;;;;;;20.72;42.42;101088.44;4372109;32;34735;-92
2022/10/17 11:46:06;;;;;;;;;;;;;;;20.79;43.59;101092.59;4367585;32;33895;-91
2022/10/17 11:48:37;;;;;;;;;;;;;;;20.96;43.97;101096.44;4366654;32;36088;-90
2022/10/17 11:51:08;;;;;;;;;;;;;;;21.05;41.42;101094.34;4368636;32;33144;-89
2022/10/17 11:53:59;;;;;;;;;;;;;;;21.23;41.79;101087.56;4363573;32;35423;-94
2022/10/17 11:56:32;;;;;;;;;;;;;;;21.06;42.84;101085.50;4367353;32;34282;-89
2022/10/17 11:59:18;;;;;;;;;;;;;;;21.08;42.82;101088.09;4369201;32;33291;-89
2022/10/17 12:01:49;;;;;;;;;;;;;;;21.04;42.99;101087.31;4363957;32;34742;-89
2022/10/17 12:04:39;;;;;;;;;;;;;;;20.97;41.93;101088.47;4365624;32;33753;-89
2022/10/17 12:07:18;;;;;;;;;;;;;;;21.14;41.80;101084.37;4364026;32;35340;-89
2022/10/17 12:09:52;;;;;;;;;;;;;;;21.18;41.63;101078.94;4367185;32;33758;-89
2022/10/17 12:12:34;;;;;;;;;;;;;;;21.07;42.31;101078.47;4370013;32;33181;-90
2022/10/17 12:15:25;;;;;;;;;;;;;;;21.29;41.72;101073.31;4369732;32;34371;-90
2022/10/17 12:18:01;;;;;;;;;;;;;;;21.22;41.87;101077.94;4364841;32;33179;-88
2022/10/17 12:20:31;;;;;;;;;;;;;;;21.25;41.81;101067.25;4366380;32;33454;-92
2022/10/17 12:23:02;;;;;;;;;;;;;;;21.30;42.00;101075.00;4370512;32;32639;-94
2022/10/17 12:25:32;;;;;;;;;;;;;;;21.02;41.81;101062.81;4372137;32;33981;-92
2022/10/17 12:28:12;;;;;;;;;;;;;;;21.26;41.28;101065.47;4375217;32;33713;-95
2022/10/17 12:30:49;;;;;;;;;;;;;;;21.47;41.01;101064.72;4367025;32;33516;-91
2022/10/17 12:33:21;;;;;;;;;;;;;;;21.37;41.72;101065.09;4366605;32;33513;-96
2022/10/17 12:35:58;;;;;;;;;;;;;;;21.39;42.66;101058.88;4367396;32;33433;-89
2022/10/17 12:38:29;;;;;;;;;;;;;;;21.44;42.02;101056.06;4366715;32;34183;-96
2022/10/17 12:40:59;;;;;;;;;;;;;;;21.54;41.18;101059.25;4373308;32;32266;-92
2022/10/17 12:43:50;;;;;;;;;;;;;;;21.34;40.99;101057.31;4368809;32;32857;-88
2022/10/17 12:46:37;;;;;;;;;;;;;;;21.42;40.59;101050.84;4368460;32;34950;-89
2022/10/17 12:49:20;;;;;;;;;;;;;;;21.48;40.75;101053.28;4368482;32;32895;-90
2022/10/17 12:52:35;;;;;;;;;;;;;;;21.56;39.34;101055.62;4363649;32;32136;-93
2022/10/17 12:55:11;;;;;;;;;;;;;;;21.39;40.63;101056.25;4366704;32;32710;-90
2022/10/17 12:57:48;;;;;;;;;;;;;;;21.38;40.91;101049.19;4381084;32;32896;-88
2022/10/17 13:00:19;;;;;;;;;;;;;;;21.52;40.80;101051.38;4371710;32;33505;-91
2022/10/17 13:02:48;;;;;;;;;;;;;;;21.37;40.78;101049.25;4368127;32;33051;-90
2022/10/17 13:05:27;;;;;;;;;;;;;;;21.26;40.56;101050.53;4370471;32;33033;-90
2022/10/17 13:08:01;;;;;;;;;;;;;;;21.36;40.29;101044.88;4362569;32;32812;-91